createdAt,value
2022-10-25T00:00:21.882Z,9.48
2022-10-25T00:02:48.725Z,9.51
2022-10-25T00:05:16.358Z,9.53
2022-10-25T00:07:43.392Z,9.50
2022-10-25T00:10:10.979Z,9.52
2022-10-25T00:12:45.802Z,9.54
2022-10-25T00:15:15.347Z,9.51
2022-10-25T00:17:43.251Z,9.52
2022-10-25T00:20:12.156Z,9.54
2022-10-25T00:22:39.383Z,9.59
2022-10-25T00:25:08.631Z,9.60
2022-10-25T00:27:36.509Z,9.59
2022-10-25T00:30:06.544Z,9.60
2022-10-25T00:32:34.644Z,9.57
2022-10-25T00:35:01.422Z,9.61
2022-10-25T00:37:28.662Z,9.62
2022-10-25T00:39:55.772Z,9.61
2022-10-25T00:42:26.513Z,9.64
2022-10-25T00:44:56.167Z,9.65
2022-10-25T00:47:39.956Z,9.64
2022-10-25T00:50:35.332Z,9.64
2022-10-25T00:53:13.696Z,9.66
2022-10-25T00:55:45.915Z,9.66
2022-10-25T00:58:20.848Z,9.66
2022-10-25T01:00:48.793Z,9.65
2022-10-25T01:03:18.251Z,9.64
2022-10-25T01:05:45.400Z,9.64
2022-10-25T01:08:12.771Z,9.63
2022-10-25T01:10:40.259Z,9.63
2022-10-25T01:13:07.818Z,9.62
2022-10-25T01:16:00.944Z,9.57
2022-10-25T01:18:58.705Z,9.56
2022-10-25T01:21:48.760Z,9.53
2022-10-25T01:24:27.818Z,9.50
2022-10-25T01:27:22.496Z,9.46
2022-10-25T01:30:46.956Z,9.44
2022-10-25T01:33:41.167Z,9.41
2022-10-25T01:36:21.047Z,9.39
2022-10-25T01:39:11.009Z,9.35
2022-10-25T01:41:49.796Z,9.36
2022-10-25T01:44:25.363Z,9.37
2022-10-25T01:46:58.941Z,9.35
2022-10-25T01:49:50.533Z,9.33
2022-10-25T01:52:22.109Z,9.31
2022-10-25T01:54:50.485Z,9.31
2022-10-25T01:58:10.946Z,9.25
2022-10-25T02:01:34.960Z,9.25
2022-10-25T02:04:23.931Z,9.20
2022-10-25T02:07:08.268Z,9.22
2022-10-25T02:10:02.996Z,9.17
2022-10-25T02:13:03.269Z,9.18
2022-10-25T02:16:02.979Z,9.16
2022-10-25T02:18:34.941Z,9.18
2022-10-25T02:21:03.888Z,9.21
2022-10-25T02:23:34.917Z,9.21
2022-10-25T02:26:06.862Z,9.22
2022-10-25T02:28:38.623Z,9.20
2022-10-25T02:31:10.920Z,9.20
2022-10-25T02:33:38.217Z,9.23
2022-10-25T02:36:08.521Z,9.20
2022-10-25T02:38:36.364Z,9.20
2022-10-25T02:41:05.012Z,9.23
2022-10-25T02:43:32.382Z,9.22
2022-10-25T02:45:59.603Z,9.22
2022-10-25T02:48:26.860Z,9.20
2022-10-25T02:50:53.606Z,9.15
2022-10-25T02:53:20.343Z,9.17
2022-10-25T02:55:47.279Z,9.18
2022-10-25T02:58:14.141Z,9.18
2022-10-25T03:00:42.341Z,9.16
2022-10-25T03:03:09.112Z,9.14
2022-10-25T03:05:35.915Z,9.13
2022-10-25T03:08:02.800Z,9.11
2022-10-25T03:10:29.567Z,9.10
2022-10-25T03:12:56.324Z,9.07
2022-10-25T03:15:23.267Z,9.08
2022-10-25T03:17:50.091Z,9.08
2022-10-25T03:20:17.152Z,9.04
2022-10-25T03:22:44.286Z,9.04
2022-10-25T03:25:11.089Z,9.03
2022-10-25T03:27:37.885Z,9.00
2022-10-25T03:30:05.308Z,9.01
2022-10-25T03:32:32.083Z,9.01
2022-10-25T03:34:58.846Z,8.97
2022-10-25T03:37:25.856Z,9.01
2022-10-25T03:39:54.325Z,8.97
2022-10-25T03:42:21.234Z,9.00
2022-10-25T03:44:48.472Z,8.98
2022-10-25T03:47:15.672Z,8.98
2022-10-25T03:49:42.627Z,8.97
2022-10-25T03:52:10.524Z,8.97
2022-10-25T03:54:38.020Z,8.96
2022-10-25T03:57:05.267Z,8.96
2022-10-25T03:59:32.044Z,8.96
2022-10-25T04:01:59.080Z,8.97
2022-10-25T04:04:25.933Z,9.00
2022-10-25T04:06:53.095Z,9.00
2022-10-25T04:09:19.886Z,9.00
2022-10-25T04:11:46.711Z,9.00
2022-10-25T04:14:13.817Z,9.02
2022-10-25T04:16:40.567Z,9.02
2022-10-25T04:19:07.469Z,9.05
2022-10-25T04:21:34.258Z,9.04
2022-10-25T04:24:03.506Z,9.04
2022-10-25T04:26:31.379Z,9.06
2022-10-25T04:28:58.191Z,9.11
2022-10-25T04:31:25.414Z,9.12
2022-10-25T04:33:54.264Z,9.11
2022-10-25T04:36:22.441Z,9.15
2022-10-25T04:38:53.543Z,9.15
2022-10-25T04:41:21.299Z,9.12
2022-10-25T04:43:50.540Z,9.13
2022-10-25T04:46:17.422Z,9.13
2022-10-25T04:48:44.276Z,9.12
2022-10-25T04:51:12.633Z,9.11
2022-10-25T04:53:40.075Z,9.10
2022-10-25T04:56:10.457Z,9.08
2022-10-25T04:58:37.743Z,9.13
2022-10-25T05:01:12.423Z,9.10
2022-10-25T05:03:40.238Z,9.08
2022-10-25T05:06:17.835Z,9.06
2022-10-25T05:08:48.184Z,9.10
2022-10-25T05:11:18.326Z,9.08
2022-10-25T05:13:46.343Z,9.08
2022-10-25T05:16:18.038Z,9.05
2022-10-25T05:18:47.547Z,9.06
2022-10-25T05:21:16.264Z,9.08
2022-10-25T05:23:43.207Z,9.05
2022-10-25T05:26:15.833Z,9.07
2022-10-25T05:28:44.615Z,9.05
2022-10-25T05:31:23.663Z,9.02
2022-10-25T05:33:55.032Z,9.01
2022-10-25T05:36:22.392Z,9.02
2022-10-25T05:38:49.720Z,9.00
2022-10-25T05:41:18.511Z,8.97
2022-10-25T05:43:46.153Z,8.96
2022-10-25T05:46:22.550Z,8.95
2022-10-25T05:48:51.457Z,8.94
2022-10-25T05:51:34.578Z,8.92
2022-10-25T05:54:16.120Z,8.88
2022-10-25T05:56:43.933Z,8.87
2022-10-25T05:59:13.510Z,8.83
2022-10-25T06:01:46.135Z,8.82
2022-10-25T06:04:14.491Z,8.78
2022-10-25T06:06:44.081Z,8.77
2022-10-25T06:09:11.951Z,8.80
2022-10-25T06:11:39.941Z,8.83
2022-10-25T06:14:07.141Z,8.85
2022-10-25T06:16:34.005Z,8.85
2022-10-25T06:19:00.854Z,8.86
2022-10-25T06:21:29.687Z,8.86
2022-10-25T06:23:58.937Z,8.85
2022-10-25T06:26:29.852Z,8.85
2022-10-25T06:29:00.126Z,8.82
2022-10-25T06:31:27.586Z,8.83
2022-10-25T06:33:54.342Z,8.84
2022-10-25T06:36:27.036Z,8.80
2022-10-25T06:38:54.359Z,8.86
2022-10-25T06:41:28.121Z,8.84
2022-10-25T06:43:55.716Z,8.85
2022-10-25T06:46:40.585Z,8.84
2022-10-25T06:49:19.558Z,8.88
2022-10-25T06:51:46.337Z,8.90
2022-10-25T06:54:13.163Z,8.93
2022-10-25T06:56:39.953Z,8.98
2022-10-25T06:59:07.463Z,9.04
2022-10-25T07:01:34.568Z,9.12
2022-10-25T07:04:03.537Z,9.18
2022-10-25T07:06:40.511Z,9.27
2022-10-25T07:09:10.250Z,9.33
2022-10-25T07:11:37.490Z,9.38
2022-10-25T07:14:04.855Z,9.45
2022-10-25T07:16:32.266Z,9.52
2022-10-25T07:19:03.874Z,9.57
2022-10-25T07:21:32.610Z,9.60
2022-10-25T07:23:59.657Z,9.68
2022-10-25T07:26:31.365Z,9.71
2022-10-25T07:29:00.501Z,9.74
2022-10-25T07:31:32.059Z,9.72
2022-10-25T07:34:02.686Z,9.75
2022-10-25T07:36:30.121Z,9.76
2022-10-25T07:38:57.240Z,9.76
2022-10-25T07:41:25.412Z,9.79
2022-10-25T07:43:52.380Z,9.86
2022-10-25T07:46:19.170Z,9.86
2022-10-25T07:48:46.121Z,9.90
2022-10-25T07:51:15.743Z,9.92
2022-10-25T07:53:43.470Z,9.94
2022-10-25T07:56:23.181Z,10.00
2022-10-25T07:58:54.120Z,10.00
2022-10-25T08:01:27.677Z,10.03
2022-10-25T08:03:55.846Z,10.07
2022-10-25T08:06:24.842Z,10.12
2022-10-25T08:08:51.716Z,10.18
2022-10-25T08:11:19.272Z,10.25
2022-10-25T08:13:50.432Z,10.30
2022-10-25T08:16:17.568Z,10.38
2022-10-25T08:18:44.707Z,10.43
2022-10-25T08:21:11.820Z,10.51
2022-10-25T08:23:38.715Z,10.59
2022-10-25T08:26:05.619Z,10.65
2022-10-25T08:28:32.431Z,10.76
2022-10-25T08:31:01.614Z,10.82
2022-10-25T08:33:28.860Z,10.91
2022-10-25T08:35:55.663Z,10.98
2022-10-25T08:38:22.588Z,11.04
2022-10-25T08:41:02.401Z,11.11
2022-10-25T08:43:39.932Z,11.16
2022-10-25T08:46:34.799Z,11.22
2022-10-25T08:49:19.536Z,11.28
2022-10-25T08:51:48.890Z,11.35
2022-10-25T08:54:26.689Z,11.37
2022-10-25T08:57:15.412Z,11.42
2022-10-25T08:59:47.743Z,11.43
2022-10-25T09:02:33.650Z,11.46
2022-10-25T09:05:00.692Z,11.49
2022-10-25T09:08:01.291Z,11.51
2022-10-25T09:10:55.283Z,11.57
2022-10-25T09:13:40.066Z,11.58
2022-10-25T09:16:43.976Z,11.62
2022-10-25T09:19:22.931Z,11.65
2022-10-25T09:22:30.600Z,11.67
2022-10-25T09:25:21.566Z,11.69
2022-10-25T09:28:03.785Z,11.69
2022-10-25T09:30:37.902Z,11.74
2022-10-25T09:33:11.375Z,11.75
2022-10-25T09:35:55.763Z,11.79
2022-10-25T09:38:39.276Z,11.77
2022-10-25T09:41:32.375Z,11.80
2022-10-25T09:44:41.705Z,11.81
2022-10-25T09:47:32.958Z,11.84
2022-10-25T09:50:16.650Z,11.82
2022-10-25T09:53:12.934Z,11.84
2022-10-25T09:56:03.970Z,11.87
2022-10-25T09:58:39.760Z,11.89
2022-10-25T10:01:16.666Z,11.90
2022-10-25T10:03:46.707Z,11.89
2022-10-25T10:06:28.017Z,11.90
2022-10-25T10:09:03.639Z,11.95
2022-10-25T10:11:33.007Z,11.98
2022-10-25T10:14:15.086Z,12.01
2022-10-25T10:16:50.724Z,12.06
2022-10-25T10:19:30.448Z,12.07
2022-10-25T10:22:09.913Z,12.13
2022-10-25T10:24:41.536Z,12.19
2022-10-25T10:27:26.399Z,12.22
2022-10-25T10:30:03.571Z,12.28
2022-10-25T10:32:37.454Z,12.35
2022-10-25T10:35:08.181Z,12.40
2022-10-25T10:37:34.995Z,12.45
2022-10-25T10:40:07.751Z,12.48
2022-10-25T10:42:41.813Z,12.52
2022-10-25T10:45:08.728Z,12.53
2022-10-25T10:47:43.353Z,12.59
2022-10-25T10:50:32.899Z,12.61
2022-10-25T10:53:07.042Z,12.70
2022-10-25T10:55:44.014Z,12.78
2022-10-25T10:58:19.358Z,12.83
2022-10-25T11:00:55.117Z,12.90
2022-10-25T11:03:59.141Z,12.95
2022-10-25T11:06:36.722Z,13.01
2022-10-25T11:09:13.108Z,13.09
2022-10-25T11:11:40.941Z,13.14
2022-10-25T11:14:20.348Z,13.18
2022-10-25T11:16:56.778Z,13.29
2022-10-25T11:19:53.459Z,13.40
2022-10-25T11:23:02.663Z,13.54
2022-10-25T11:26:01.868Z,13.66
2022-10-25T11:28:34.897Z,13.77
2022-10-25T11:31:21.668Z,13.82
2022-10-25T11:34:00.166Z,13.92
2022-10-25T11:36:47.807Z,13.95
2022-10-25T11:39:17.575Z,13.99
2022-10-25T11:41:49.463Z,14.00
2022-10-25T11:44:56.039Z,14.06
2022-10-25T11:47:43.312Z,14.11
2022-10-25T11:50:33.444Z,14.10
2022-10-25T11:53:24.619Z,14.11
2022-10-25T11:56:19.386Z,14.14
2022-10-25T11:58:57.768Z,14.18
2022-10-25T12:01:58.719Z,14.22
2022-10-25T12:05:06.991Z,14.21
2022-10-25T12:07:53.451Z,14.20
2022-10-25T12:10:33.451Z,14.23
2022-10-25T12:13:17.328Z,14.26
2022-10-25T12:15:48.651Z,14.27
2022-10-25T12:18:42.742Z,14.31
2022-10-25T12:21:13.628Z,14.31
2022-10-25T12:23:49.198Z,14.33
2022-10-25T12:26:30.044Z,14.35
2022-10-25T12:29:01.935Z,14.37
2022-10-25T12:31:44.441Z,14.32
2022-10-25T12:34:26.927Z,14.42
2022-10-25T12:37:04.071Z,14.47
2022-10-25T12:39:44.494Z,14.56
2022-10-25T12:42:38.239Z,14.65
2022-10-25T12:45:27.343Z,14.77
2022-10-25T12:48:17.634Z,14.84
2022-10-25T12:50:50.814Z,14.93
2022-10-25T12:53:58.104Z,14.95
2022-10-25T12:56:52.547Z,14.99
2022-10-25T12:59:43.379Z,14.98
2022-10-25T13:02:50.944Z,14.97
2022-10-25T13:05:45.195Z,14.93
2022-10-25T13:08:21.632Z,14.97
2022-10-25T13:11:01.854Z,15.01
2022-10-25T13:13:33.888Z,15.05
2022-10-25T13:16:05.737Z,15.08
2022-10-25T13:18:32.729Z,15.14
2022-10-25T13:21:08.278Z,15.26
2022-10-25T13:23:46.834Z,15.32
2022-10-25T13:26:25.901Z,15.42
2022-10-25T13:29:39.335Z,15.47
2022-10-25T13:32:10.339Z,15.50
2022-10-25T13:34:39.403Z,15.48
2022-10-25T13:37:33.560Z,15.49
2022-10-25T13:40:05.045Z,15.47
2022-10-25T13:42:38.781Z,15.44
2022-10-25T13:45:09.223Z,15.37
2022-10-25T13:47:47.173Z,15.27
2022-10-25T13:50:35.913Z,15.24
2022-10-25T13:53:21.555Z,15.17
2022-10-25T13:55:58.199Z,15.10
2022-10-25T13:58:32.178Z,15.02
2022-10-25T14:01:20.816Z,14.91
2022-10-25T14:04:21.293Z,14.88
2022-10-25T14:06:48.174Z,14.84
2022-10-25T14:09:30.087Z,14.82
2022-10-25T14:12:00.142Z,14.81
2022-10-25T14:14:34.265Z,14.75
2022-10-25T14:17:26.899Z,14.71
2022-10-25T14:19:59.289Z,14.65
2022-10-25T14:22:54.310Z,14.64
2022-10-25T14:25:25.615Z,14.66
2022-10-25T14:28:10.582Z,14.72
2022-10-25T14:31:05.968Z,14.78
2022-10-25T14:33:51.491Z,14.85
2022-10-25T14:36:28.505Z,14.85
2022-10-25T14:39:18.500Z,14.86
2022-10-25T14:41:55.739Z,14.93
2022-10-25T14:44:30.344Z,15.00
2022-10-25T14:47:00.034Z,15.05
2022-10-25T14:49:28.021Z,15.16
2022-10-25T14:52:01.061Z,15.23
2022-10-25T14:54:36.168Z,15.32
2022-10-25T14:57:06.295Z,15.28
2022-10-25T14:59:46.707Z,15.29
2022-10-25T15:02:22.635Z,15.24
2022-10-25T15:04:52.868Z,15.27
2022-10-25T15:07:31.476Z,15.30
2022-10-25T15:10:01.497Z,15.35
2022-10-25T15:12:31.509Z,15.32
2022-10-25T15:15:31.765Z,15.35
2022-10-25T15:17:58.647Z,15.36
2022-10-25T15:20:34.886Z,15.31
2022-10-25T15:23:15.352Z,15.27
2022-10-25T15:25:42.219Z,15.24
2022-10-25T15:28:15.869Z,15.21
2022-10-25T15:31:03.082Z,15.13
2022-10-25T15:33:32.506Z,15.13
2022-10-25T15:36:04.850Z,15.09
2022-10-25T15:39:05.529Z,15.10
2022-10-25T15:41:23.767Z,15.11
2022-10-25T15:43:52.503Z,15.06
2022-10-25T15:46:30.387Z,15.00
2022-10-25T15:49:04.372Z,14.90
2022-10-25T15:51:34.747Z,14.85
2022-10-25T15:54:01.900Z,14.78
2022-10-25T15:56:29.278Z,14.71
2022-10-25T15:58:56.726Z,14.66
2022-10-25T16:01:23.652Z,14.61
2022-10-25T16:03:50.533Z,14.54
2022-10-25T16:06:17.319Z,14.49
2022-10-25T16:08:44.429Z,14.42
2022-10-25T16:11:19.604Z,14.39
2022-10-25T16:13:49.282Z,14.31
2022-10-25T16:16:41.771Z,14.21
2022-10-25T16:19:28.505Z,14.16
2022-10-25T16:21:55.364Z,14.11
2022-10-25T16:24:22.172Z,14.07
2022-10-25T16:26:50.260Z,14.00
2022-10-25T16:29:24.523Z,13.95
2022-10-25T16:31:52.194Z,13.91
2022-10-25T16:34:19.834Z,13.85
2022-10-25T16:36:49.115Z,13.80
2022-10-25T16:39:17.017Z,13.75
2022-10-25T16:41:46.063Z,13.69
2022-10-25T16:44:15.742Z,13.64
2022-10-25T16:46:42.590Z,13.58
2022-10-25T16:49:09.651Z,13.51
2022-10-25T16:51:38.338Z,13.49
2022-10-25T16:54:05.694Z,13.41
2022-10-25T16:56:32.573Z,13.37
2022-10-25T16:58:59.721Z,13.34
2022-10-25T17:01:33.839Z,13.30
2022-10-25T17:04:02.350Z,13.28
2022-10-25T17:06:40.917Z,13.28
2022-10-25T17:09:09.256Z,13.27
2022-10-25T17:11:36.531Z,13.31
2022-10-25T17:14:04.385Z,13.31
2022-10-25T17:16:31.459Z,13.34
2022-10-25T17:18:58.235Z,13.38
2022-10-25T17:21:25.038Z,13.35
2022-10-25T17:23:51.840Z,13.42
2022-10-25T17:26:18.618Z,13.39
2022-10-25T17:28:45.379Z,13.47
2022-10-25T17:31:15.043Z,13.47
2022-10-25T17:33:43.164Z,13.45
2022-10-25T17:36:16.451Z,13.54
2022-10-25T17:38:43.878Z,13.56
2022-10-25T17:41:11.972Z,13.56
2022-10-25T17:43:40.838Z,13.59
2022-10-25T17:46:17.052Z,13.58
2022-10-25T17:48:43.840Z,13.57
2022-10-25T17:51:15.479Z,13.59
2022-10-25T17:53:42.549Z,13.64
2022-10-25T17:56:20.266Z,13.59
2022-10-25T17:58:49.725Z,13.61
2022-10-25T18:01:20.162Z,13.65
2022-10-25T18:03:47.761Z,13.62
2022-10-25T18:06:18.213Z,13.67
2022-10-25T18:08:45.746Z,13.68
2022-10-25T18:11:19.457Z,13.70
2022-10-25T18:13:46.348Z,13.70
2022-10-25T18:16:13.214Z,13.73
2022-10-25T18:18:40.185Z,13.74
2022-10-25T18:21:13.553Z,13.73
2022-10-25T18:23:41.695Z,13.75
2022-10-25T18:26:11.565Z,13.78
2022-10-25T18:28:39.085Z,13.79
2022-10-25T18:31:09.869Z,13.78
2022-10-25T18:33:39.568Z,13.80
2022-10-25T18:36:08.855Z,13.82
2022-10-25T18:38:36.551Z,13.79
2022-10-25T18:41:26.390Z,13.79
2022-10-25T18:43:54.994Z,13.81
2022-10-25T18:46:23.558Z,13.81
2022-10-25T18:48:52.811Z,13.78
2022-10-25T18:51:22.090Z,13.78
2022-10-25T18:53:53.409Z,13.78
2022-10-25T18:56:22.125Z,13.77
2022-10-25T18:58:50.031Z,13.78
2022-10-25T19:01:21.085Z,13.80
2022-10-25T19:03:48.052Z,13.81
2022-10-25T19:06:15.067Z,13.80
2022-10-25T19:08:43.103Z,13.82
2022-10-25T19:11:13.428Z,13.80
2022-10-25T19:13:41.405Z,13.78
2022-10-25T19:16:09.468Z,13.79
2022-10-25T19:18:37.698Z,13.81
2022-10-25T19:21:13.971Z,13.76
2022-10-25T19:23:42.827Z,13.78
2022-10-25T19:26:15.638Z,13.79
2022-10-25T19:28:42.798Z,13.77
2022-10-25T19:31:14.208Z,13.76
2022-10-25T19:33:46.104Z,13.76
2022-10-25T19:36:13.879Z,13.75
2022-10-25T19:38:41.333Z,13.73
2022-10-25T19:41:13.030Z,13.75
2022-10-25T19:43:39.889Z,13.77
2022-10-25T19:46:07.948Z,13.75
2022-10-25T19:48:35.690Z,13.78
2022-10-25T19:51:15.397Z,13.71
2022-10-25T19:53:43.263Z,13.70
2022-10-25T19:56:20.363Z,13.69
2022-10-25T19:58:47.792Z,13.64
2022-10-25T20:01:23.775Z,13.65
2022-10-25T20:03:52.686Z,13.65
2022-10-25T20:06:24.684Z,13.60
2022-10-25T20:08:53.180Z,13.60
2022-10-25T20:11:20.972Z,13.58
2022-10-25T20:13:47.876Z,13.54
2022-10-25T20:16:15.371Z,13.57
2022-10-25T20:18:42.972Z,13.55
2022-10-25T20:21:23.709Z,13.53
2022-10-25T20:23:59.483Z,13.49
2022-10-25T20:26:27.684Z,13.47
2022-10-25T20:28:57.290Z,13.47
2022-10-25T20:31:26.436Z,13.45
2022-10-25T20:33:54.114Z,13.44
2022-10-25T20:36:22.000Z,13.35
2022-10-25T20:38:49.284Z,13.40
2022-10-25T20:41:22.787Z,13.38
2022-10-25T20:43:52.984Z,13.37
2022-10-25T20:46:21.860Z,13.33
2022-10-25T20:48:49.095Z,13.34
2022-10-25T20:51:17.280Z,13.30
2022-10-25T20:53:45.891Z,13.31
2022-10-25T20:56:13.806Z,13.32
2022-10-25T20:58:41.100Z,13.28
2022-10-25T21:01:08.408Z,13.27
2022-10-25T21:03:35.523Z,13.28
2022-10-25T21:06:05.775Z,13.27
2022-10-25T21:08:33.979Z,13.26
2022-10-25T21:11:04.646Z,13.28
2022-10-25T21:13:34.225Z,13.28
2022-10-25T21:16:13.183Z,13.26
2022-10-25T21:18:41.474Z,13.29
2022-10-25T21:21:14.414Z,13.25
2022-10-25T21:23:41.546Z,13.26
2022-10-25T21:26:09.612Z,13.24
2022-10-25T21:28:39.538Z,13.29
2022-10-25T21:31:11.164Z,13.25
2022-10-25T21:33:38.682Z,13.26
2022-10-25T21:36:11.918Z,13.22
2022-10-25T21:38:39.150Z,13.27
2022-10-25T21:41:10.138Z,13.26
2022-10-25T21:43:41.968Z,13.24
2022-10-25T21:46:08.842Z,13.24
2022-10-25T21:48:36.062Z,13.26
2022-10-25T21:51:04.179Z,13.21
2022-10-25T21:53:31.081Z,13.23
2022-10-25T21:56:12.714Z,13.21
2022-10-25T21:58:41.366Z,13.20
2022-10-25T22:01:18.496Z,13.21
2022-10-25T22:03:45.520Z,13.18
2022-10-25T22:06:16.809Z,13.22
2022-10-25T22:08:44.307Z,13.17
2022-10-25T22:11:18.284Z,13.16
2022-10-25T22:13:45.608Z,13.16
2022-10-25T22:16:20.196Z,13.17
2022-10-25T22:18:57.790Z,13.19
2022-10-25T22:21:27.584Z,13.19
2022-10-25T22:23:54.411Z,13.19
2022-10-25T22:26:22.397Z,13.17
2022-10-25T22:28:58.210Z,13.18
2022-10-25T22:31:27.708Z,13.18
2022-10-25T22:34:00.547Z,13.19
2022-10-25T22:36:34.833Z,13.22
2022-10-25T22:39:02.456Z,13.24
2022-10-25T22:41:30.731Z,13.29
2022-10-25T22:43:59.215Z,13.29
2022-10-25T22:46:29.533Z,13.31
2022-10-25T22:48:58.403Z,13.34
2022-10-25T22:51:28.101Z,13.38
2022-10-25T22:53:55.144Z,13.33
2022-10-25T22:56:29.345Z,13.38
2022-10-25T22:59:03.342Z,13.38
2022-10-25T23:01:36.414Z,13.40
2022-10-25T23:04:07.803Z,13.41
2022-10-25T23:06:39.438Z,13.38
2022-10-25T23:09:09.728Z,13.40
2022-10-25T23:11:39.683Z,13.41
2022-10-25T23:14:13.431Z,13.44
2022-10-25T23:16:43.568Z,13.43
2022-10-25T23:19:13.437Z,13.38
2022-10-25T23:21:40.213Z,13.41
2022-10-25T23:24:07.430Z,13.42
2022-10-25T23:26:36.625Z,13.43
2022-10-25T23:29:04.129Z,13.45
2022-10-25T23:31:32.051Z,13.41
2022-10-25T23:34:00.878Z,13.43
2022-10-25T23:36:37.475Z,13.42
2022-10-25T23:39:07.384Z,13.37
2022-10-25T23:41:34.352Z,13.40
2022-10-25T23:44:01.211Z,13.39
2022-10-25T23:46:27.962Z,13.40
2022-10-25T23:48:54.750Z,13.35
2022-10-25T23:51:21.754Z,13.36
2022-10-25T23:53:48.920Z,13.32
2022-10-25T23:56:15.884Z,13.37
2022-10-25T23:58:43.060Z,13.34
